Sterling, Idaho
Current Conditions -  °F | °C
As of 6:53 PM on Sunday 21 Dec 2014 (Local Time) from KPIH Reporting Station
Overcast Overcast  
Wind Chill: -1°   Ceiling: 1700
Heat Index:   Visibility: 10mi
Dew Point:   Wind: 15mph
Humidity: 93%   Direction: 240°WSW
Pressure: 29.93"   Gusts: NA
Location:  43.1849°N, 112.825°W
Report Text: KPIH 220153Z 24013KT 10SM OVC017 04/03 A2993 RMK AO2 SLP136 T00390028
Loading
Personal Weather Stations






























Interactive Weather Map New forecast layout! Learn more

10-Day Weather Forecast

Advertisements
Track Severe Weather on mobile